sensor_id;sensor_type;location;lat;lon;timestamp;temperature;humidity
20560;DHT22;10438;51.454;6.718;2022-07-23T00:00:29;16.70;99.90
20560;DHT22;10438;51.454;6.718;2022-07-23T00:02:55;16.70;99.90
20560;DHT22;10438;51.454;6.718;2022-07-23T00:05:20;16.70;99.90
20560;DHT22;10438;51.454;6.718;2022-07-23T00:07:46;16.70;99.90
20560;DHT22;10438;51.454;6.718;2022-07-23T00:10:11;16.70;99.90
20560;DHT22;10438;51.454;6.718;2022-07-23T00:12:38;16.70;99.90
20560;DHT22;10438;51.454;6.718;2022-07-23T00:15:04;16.70;99.90
20560;DHT22;10438;51.454;6.718;2022-07-23T00:17:30;16.70;99.90
20560;DHT22;10438;51.454;6.718;2022-07-23T00:19:56;16.70;99.90
20560;DHT22;10438;51.454;6.718;2022-07-23T00:22:21;16.70;99.90
20560;DHT22;10438;51.454;6.718;2022-07-23T00:24:47;16.70;99.90
20560;DHT22;10438;51.454;6.718;2022-07-23T00:27:12;16.70;99.90
20560;DHT22;10438;51.454;6.718;2022-07-23T00:29:38;16.60;99.90
20560;DHT22;10438;51.454;6.718;2022-07-23T00:32:04;16.60;99.90
20560;DHT22;10438;51.454;6.718;2022-07-23T00:34:29;16.60;99.90
20560;DHT22;10438;51.454;6.718;2022-07-23T00:36:55;16.60;99.90
20560;DHT22;10438;51.454;6.718;2022-07-23T00:39:21;16.60;99.90
20560;DHT22;10438;51.454;6.718;2022-07-23T00:41:48;16.50;99.90
20560;DHT22;10438;51.454;6.718;2022-07-23T00:44:25;16.50;99.90
20560;DHT22;10438;51.454;6.718;2022-07-23T00:46:54;16.60;99.90
20560;DHT22;10438;51.454;6.718;2022-07-23T00:49:24;16.60;99.90
20560;DHT22;10438;51.454;6.718;2022-07-23T00:51:50;16.60;99.90
20560;DHT22;10438;51.454;6.718;2022-07-23T00:54:17;16.50;99.90
20560;DHT22;10438;51.454;6.718;2022-07-23T00:56:44;16.50;99.90
20560;DHT22;10438;51.454;6.718;2022-07-23T00:59:10;16.50;99.90
20560;DHT22;10438;51.454;6.718;2022-07-23T01:01:36;16.50;99.90
20560;DHT22;10438;51.454;6.718;2022-07-23T01:04:02;16.50;99.90
20560;DHT22;10438;51.454;6.718;2022-07-23T01:06:28;16.50;99.90
20560;DHT22;10438;51.454;6.718;2022-07-23T01:08:55;16.40;99.90
20560;DHT22;10438;51.454;6.718;2022-07-23T01:11:21;16.40;99.90
20560;DHT22;10438;51.454;6.718;2022-07-23T01:13:48;16.40;99.90
20560;DHT22;10438;51.454;6.718;2022-07-23T01:16:13;16.40;99.90
20560;DHT22;10438;51.454;6.718;2022-07-23T01:18:39;16.30;99.90
20560;DHT22;10438;51.454;6.718;2022-07-23T01:21:05;16.30;99.90
20560;DHT22;10438;51.454;6.718;2022-07-23T01:23:31;16.30;99.90
20560;DHT22;10438;51.454;6.718;2022-07-23T01:25:56;16.30;99.90
20560;DHT22;10438;51.454;6.718;2022-07-23T01:28:22;16.40;99.90
20560;DHT22;10438;51.454;6.718;2022-07-23T01:30:48;16.30;99.90
20560;DHT22;10438;51.454;6.718;2022-07-23T01:33:14;16.40;99.90
20560;DHT22;10438;51.454;6.718;2022-07-23T01:35:39;16.40;99.90
20560;DHT22;10438;51.454;6.718;2022-07-23T01:38:05;16.40;99.90
20560;DHT22;10438;51.454;6.718;2022-07-23T01:40:31;16.40;99.90
20560;DHT22;10438;51.454;6.718;2022-07-23T01:42:57;16.40;99.90
20560;DHT22;10438;51.454;6.718;2022-07-23T01:45:22;16.30;99.90
20560;DHT22;10438;51.454;6.718;2022-07-23T01:47:48;16.30;99.90
20560;DHT22;10438;51.454;6.718;2022-07-23T01:50:14;16.30;99.90
20560;DHT22;10438;51.454;6.718;2022-07-23T01:52:39;16.20;99.90
20560;DHT22;10438;51.454;6.718;2022-07-23T01:55:05;16.10;99.90
20560;DHT22;10438;51.454;6.718;2022-07-23T01:57:32;16.10;99.90
20560;DHT22;10438;51.454;6.718;2022-07-23T01:59:57;16.10;99.90
20560;DHT22;10438;51.454;6.718;2022-07-23T02:02:23;16.10;99.90
20560;DHT22;10438;51.454;6.718;2022-07-23T02:04:49;16.10;99.90
20560;DHT22;10438;51.454;6.718;2022-07-23T02:07:14;16.00;99.90
20560;DHT22;10438;51.454;6.718;2022-07-23T02:09:40;16.00;99.90
20560;DHT22;10438;51.454;6.718;2022-07-23T02:12:05;15.90;99.90
20560;DHT22;10438;51.454;6.718;2022-07-23T02:14:31;16.00;99.90
20560;DHT22;10438;51.454;6.718;2022-07-23T02:16:56;15.90;99.90
20560;DHT22;10438;51.454;6.718;2022-07-23T02:19:22;15.90;99.90
20560;DHT22;10438;51.454;6.718;2022-07-23T02:21:48;15.90;99.90
20560;DHT22;10438;51.454;6.718;2022-07-23T02:24:13;15.90;99.90
20560;DHT22;10438;51.454;6.718;2022-07-23T02:26:39;15.90;99.90
20560;DHT22;10438;51.454;6.718;2022-07-23T02:29:05;15.90;99.90
20560;DHT22;10438;51.454;6.718;2022-07-23T02:31:30;15.90;99.90
20560;DHT22;10438;51.454;6.718;2022-07-23T02:33:56;15.90;99.90
20560;DHT22;10438;51.454;6.718;2022-07-23T02:36:22;15.90;99.90
20560;DHT22;10438;51.454;6.718;2022-07-23T02:38:48;15.90;99.90
20560;DHT22;10438;51.454;6.718;2022-07-23T02:41:13;15.90;99.90
20560;DHT22;10438;51.454;6.718;2022-07-23T02:43:39;15.90;99.90
20560;DHT22;10438;51.454;6.718;2022-07-23T02:46:04;15.90;99.90
20560;DHT22;10438;51.454;6.718;2022-07-23T02:48:30;15.90;99.90
20560;DHT22;10438;51.454;6.718;2022-07-23T02:50:56;15.90;99.90
20560;DHT22;10438;51.454;6.718;2022-07-23T02:53:24;15.90;99.90
20560;DHT22;10438;51.454;6.718;2022-07-23T02:55:50;15.80;99.90
20560;DHT22;10438;51.454;6.718;2022-07-23T02:58:16;15.80;99.90
20560;DHT22;10438;51.454;6.718;2022-07-23T03:00:41;15.70;99.90
20560;DHT22;10438;51.454;6.718;2022-07-23T03:03:07;15.70;99.90
20560;DHT22;10438;51.454;6.718;2022-07-23T03:05:33;15.70;99.90
20560;DHT22;10438;51.454;6.718;2022-07-23T03:07:59;15.70;99.90
20560;DHT22;10438;51.454;6.718;2022-07-23T03:10:25;15.70;99.90
20560;DHT22;10438;51.454;6.718;2022-07-23T03:12:50;15.70;99.90
20560;DHT22;10438;51.454;6.718;2022-07-23T03:15:16;15.60;99.90
20560;DHT22;10438;51.454;6.718;2022-07-23T03:17:42;15.60;99.90
20560;DHT22;10438;51.454;6.718;2022-07-23T03:20:08;15.60;99.90
20560;DHT22;10438;51.454;6.718;2022-07-23T03:22:33;15.60;99.90
20560;DHT22;10438;51.454;6.718;2022-07-23T03:24:59;15.60;99.90
20560;DHT22;10438;51.454;6.718;2022-07-23T03:27:27;15.60;99.90
20560;DHT22;10438;51.454;6.718;2022-07-23T03:29:54;15.50;99.90
20560;DHT22;10438;51.454;6.718;2022-07-23T03:32:20;15.50;99.90
20560;DHT22;10438;51.454;6.718;2022-07-23T03:34:47;15.50;99.90
20560;DHT22;10438;51.454;6.718;2022-07-23T03:37:12;15.40;99.90
20560;DHT22;10438;51.454;6.718;2022-07-23T03:39:38;15.40;99.90
20560;DHT22;10438;51.454;6.718;2022-07-23T03:42:04;15.40;99.90
20560;DHT22;10438;51.454;6.718;2022-07-23T03:44:30;15.40;99.90
20560;DHT22;10438;51.454;6.718;2022-07-23T03:46:55;15.40;99.90
20560;DHT22;10438;51.454;6.718;2022-07-23T03:49:21;15.40;99.90
20560;DHT22;10438;51.454;6.718;2022-07-23T03:51:46;15.30;99.90
20560;DHT22;10438;51.454;6.718;2022-07-23T03:54:12;15.30;99.90
20560;DHT22;10438;51.454;6.718;2022-07-23T03:56:38;15.30;99.90
20560;DHT22;10438;51.454;6.718;2022-07-23T03:59:03;15.30;99.90
20560;DHT22;10438;51.454;6.718;2022-07-23T04:01:29;15.30;99.90
20560;DHT22;10438;51.454;6.718;2022-07-23T04:03:54;15.30;99.90
20560;DHT22;10438;51.454;6.718;2022-07-23T04:06:20;15.20;99.90
20560;DHT22;10438;51.454;6.718;2022-07-23T04:08:45;15.20;99.90
20560;DHT22;10438;51.454;6.718;2022-07-23T04:11:11;15.20;99.90
20560;DHT22;10438;51.454;6.718;2022-07-23T04:13:36;15.20;99.90
20560;DHT22;10438;51.454;6.718;2022-07-23T04:16:02;15.20;99.90
20560;DHT22;10438;51.454;6.718;2022-07-23T04:18:29;15.20;99.90
20560;DHT22;10438;51.454;6.718;2022-07-23T04:20:55;15.20;99.90
20560;DHT22;10438;51.454;6.718;2022-07-23T04:23:20;15.20;99.90
20560;DHT22;10438;51.454;6.718;2022-07-23T04:25:46;15.20;99.90
20560;DHT22;10438;51.454;6.718;2022-07-23T04:28:11;15.20;99.90
20560;DHT22;10438;51.454;6.718;2022-07-23T04:30:37;15.20;99.90
20560;DHT22;10438;51.454;6.718;2022-07-23T04:33:03;15.20;99.90
20560;DHT22;10438;51.454;6.718;2022-07-23T04:35:32;15.20;99.90
20560;DHT22;10438;51.454;6.718;2022-07-23T04:37:58;15.20;99.90
20560;DHT22;10438;51.454;6.718;2022-07-23T04:40:23;15.20;99.90
20560;DHT22;10438;51.454;6.718;2022-07-23T04:42:49;15.20;99.90
20560;DHT22;10438;51.454;6.718;2022-07-23T04:45:14;15.20;99.90
20560;DHT22;10438;51.454;6.718;2022-07-23T04:47:40;15.20;99.90
20560;DHT22;10438;51.454;6.718;2022-07-23T04:50:05;15.20;99.90
20560;DHT22;10438;51.454;6.718;2022-07-23T04:52:31;15.20;99.90
20560;DHT22;10438;51.454;6.718;2022-07-23T04:54:56;15.30;99.90
20560;DHT22;10438;51.454;6.718;2022-07-23T04:57:22;15.30;99.90
20560;DHT22;10438;51.454;6.718;2022-07-23T04:59:47;15.30;99.90
20560;DHT22;10438;51.454;6.718;2022-07-23T05:02:13;15.30;99.90
20560;DHT22;10438;51.454;6.718;2022-07-23T05:04:38;15.30;99.90
20560;DHT22;10438;51.454;6.718;2022-07-23T05:07:04;15.30;99.90
20560;DHT22;10438;51.454;6.718;2022-07-23T05:09:29;15.30;99.90
20560;DHT22;10438;51.454;6.718;2022-07-23T05:11:55;15.30;99.90
20560;DHT22;10438;51.454;6.718;2022-07-23T05:14:21;15.30;99.90
20560;DHT22;10438;51.454;6.718;2022-07-23T05:16:46;15.40;99.90
20560;DHT22;10438;51.454;6.718;2022-07-23T05:19:12;15.40;99.90
20560;DHT22;10438;51.454;6.718;2022-07-23T05:21:37;15.40;99.90
20560;DHT22;10438;51.454;6.718;2022-07-23T05:24:03;15.40;99.90
20560;DHT22;10438;51.454;6.718;2022-07-23T05:26:29;15.50;99.90
20560;DHT22;10438;51.454;6.718;2022-07-23T05:28:54;15.50;99.90
20560;DHT22;10438;51.454;6.718;2022-07-23T05:31:20;15.50;99.90
20560;DHT22;10438;51.454;6.718;2022-07-23T05:33:45;15.60;99.90
20560;DHT22;10438;51.454;6.718;2022-07-23T05:36:11;15.60;99.90
20560;DHT22;10438;51.454;6.718;2022-07-23T05:38:36;15.60;99.90
20560;DHT22;10438;51.454;6.718;2022-07-23T05:41:02;15.70;99.90
20560;DHT22;10438;51.454;6.718;2022-07-23T05:43:28;15.70;99.90
20560;DHT22;10438;51.454;6.718;2022-07-23T05:45:54;15.70;99.90
20560;DHT22;10438;51.454;6.718;2022-07-23T05:48:20;15.70;99.90
20560;DHT22;10438;51.454;6.718;2022-07-23T05:50:46;15.80;99.90
20560;DHT22;10438;51.454;6.718;2022-07-23T05:53:12;15.80;99.90
20560;DHT22;10438;51.454;6.718;2022-07-23T05:55:38;15.90;99.90
20560;DHT22;10438;51.454;6.718;2022-07-23T05:58:03;15.90;99.90
20560;DHT22;10438;51.454;6.718;2022-07-23T06:00:29;15.90;99.90
20560;DHT22;10438;51.454;6.718;2022-07-23T06:02:56;16.00;99.90
20560;DHT22;10438;51.454;6.718;2022-07-23T06:05:22;16.10;99.90
20560;DHT22;10438;51.454;6.718;2022-07-23T06:07:48;16.00;99.90
20560;DHT22;10438;51.454;6.718;2022-07-23T06:10:13;16.10;99.90
20560;DHT22;10438;51.454;6.718;2022-07-23T06:12:39;16.20;99.90
20560;DHT22;10438;51.454;6.718;2022-07-23T06:15:05;16.20;99.90
20560;DHT22;10438;51.454;6.718;2022-07-23T06:17:31;16.20;99.90
20560;DHT22;10438;51.454;6.718;2022-07-23T06:19:56;16.30;99.90
20560;DHT22;10438;51.454;6.718;2022-07-23T06:22:22;16.30;99.90
20560;DHT22;10438;51.454;6.718;2022-07-23T06:24:49;16.40;99.90
20560;DHT22;10438;51.454;6.718;2022-07-23T06:27:14;16.40;99.90
20560;DHT22;10438;51.454;6.718;2022-07-23T06:29:40;16.40;99.90
20560;DHT22;10438;51.454;6.718;2022-07-23T06:32:06;16.50;99.90
20560;DHT22;10438;51.454;6.718;2022-07-23T06:34:32;16.50;99.90
20560;DHT22;10438;51.454;6.718;2022-07-23T06:36:58;16.60;99.90
20560;DHT22;10438;51.454;6.718;2022-07-23T06:39:23;16.60;99.90
20560;DHT22;10438;51.454;6.718;2022-07-23T06:41:50;16.70;99.90
20560;DHT22;10438;51.454;6.718;2022-07-23T06:44:15;16.70;99.90
20560;DHT22;10438;51.454;6.718;2022-07-23T06:46:41;16.80;99.90
20560;DHT22;10438;51.454;6.718;2022-07-23T06:49:07;16.90;99.90
20560;DHT22;10438;51.454;6.718;2022-07-23T06:51:32;17.00;99.90
20560;DHT22;10438;51.454;6.718;2022-07-23T06:53:58;17.00;99.90
20560;DHT22;10438;51.454;6.718;2022-07-23T06:56:24;17.00;99.90
20560;DHT22;10438;51.454;6.718;2022-07-23T06:58:49;17.00;99.90
20560;DHT22;10438;51.454;6.718;2022-07-23T07:01:15;17.00;99.90
20560;DHT22;10438;51.454;6.718;2022-07-23T07:03:40;17.10;99.90
20560;DHT22;10438;51.454;6.718;2022-07-23T07:06:06;17.20;99.90
20560;DHT22;10438;51.454;6.718;2022-07-23T07:08:31;17.20;99.90
20560;DHT22;10438;51.454;6.718;2022-07-23T07:10:57;17.30;99.90
20560;DHT22;10438;51.454;6.718;2022-07-23T07:13:22;17.40;99.90
20560;DHT22;10438;51.454;6.718;2022-07-23T07:15:48;17.50;99.90
20560;DHT22;10438;51.454;6.718;2022-07-23T07:18:13;17.60;99.90
20560;DHT22;10438;51.454;6.718;2022-07-23T07:20:39;17.70;99.90
20560;DHT22;10438;51.454;6.718;2022-07-23T07:23:04;17.90;99.90
20560;DHT22;10438;51.454;6.718;2022-07-23T07:25:30;17.90;99.90
20560;DHT22;10438;51.454;6.718;2022-07-23T07:27:55;18.00;99.90
20560;DHT22;10438;51.454;6.718;2022-07-23T07:30:21;18.10;99.90
20560;DHT22;10438;51.454;6.718;2022-07-23T07:32:47;18.20;99.90
20560;DHT22;10438;51.454;6.718;2022-07-23T07:35:12;18.20;99.90
20560;DHT22;10438;51.454;6.718;2022-07-23T07:37:38;18.30;99.90
20560;DHT22;10438;51.454;6.718;2022-07-23T07:40:04;18.30;99.90
20560;DHT22;10438;51.454;6.718;2022-07-23T07:42:30;18.40;99.90
20560;DHT22;10438;51.454;6.718;2022-07-23T07:44:57;18.50;99.90
20560;DHT22;10438;51.454;6.718;2022-07-23T07:47:23;18.60;99.90
20560;DHT22;10438;51.454;6.718;2022-07-23T07:49:48;18.70;99.90
20560;DHT22;10438;51.454;6.718;2022-07-23T07:52:14;18.80;99.90
20560;DHT22;10438;51.454;6.718;2022-07-23T07:54:39;19.00;99.90
20560;DHT22;10438;51.454;6.718;2022-07-23T07:57:05;19.00;99.90
20560;DHT22;10438;51.454;6.718;2022-07-23T07:59:30;19.10;99.90
20560;DHT22;10438;51.454;6.718;2022-07-23T08:01:56;19.10;99.90
20560;DHT22;10438;51.454;6.718;2022-07-23T08:04:22;19.30;99.90
20560;DHT22;10438;51.454;6.718;2022-07-23T08:06:47;19.30;99.90
20560;DHT22;10438;51.454;6.718;2022-07-23T08:09:13;19.40;99.90
20560;DHT22;10438;51.454;6.718;2022-07-23T08:11:38;19.50;99.90
20560;DHT22;10438;51.454;6.718;2022-07-23T08:14:04;19.60;99.90
20560;DHT22;10438;51.454;6.718;2022-07-23T08:16:29;19.70;99.90
20560;DHT22;10438;51.454;6.718;2022-07-23T08:18:55;19.90;99.90
20560;DHT22;10438;51.454;6.718;2022-07-23T08:21:20;20.00;99.90
20560;DHT22;10438;51.454;6.718;2022-07-23T08:23:46;20.10;99.90
20560;DHT22;10438;51.454;6.718;2022-07-23T08:26:11;20.20;99.90
20560;DHT22;10438;51.454;6.718;2022-07-23T08:28:37;20.20;99.90
20560;DHT22;10438;51.454;6.718;2022-07-23T08:31:03;20.20;99.90
20560;DHT22;10438;51.454;6.718;2022-07-23T08:33:30;20.20;99.90
20560;DHT22;10438;51.454;6.718;2022-07-23T08:35:56;20.30;99.90
20560;DHT22;10438;51.454;6.718;2022-07-23T08:38:23;20.30;99.90
20560;DHT22;10438;51.454;6.718;2022-07-23T08:40:52;20.40;99.90
20560;DHT22;10438;51.454;6.718;2022-07-23T08:43:20;20.50;99.90
20560;DHT22;10438;51.454;6.718;2022-07-23T08:45:50;20.80;99.90
20560;DHT22;10438;51.454;6.718;2022-07-23T08:48:22;20.90;99.90
20560;DHT22;10438;51.454;6.718;2022-07-23T08:50:53;20.90;99.90
20560;DHT22;10438;51.454;6.718;2022-07-23T08:53:21;20.90;99.90
20560;DHT22;10438;51.454;6.718;2022-07-23T08:55:58;21.00;99.90
20560;DHT22;10438;51.454;6.718;2022-07-23T08:58:24;21.20;99.90
20560;DHT22;10438;51.454;6.718;2022-07-23T09:00:51;21.30;99.90
20560;DHT22;10438;51.454;6.718;2022-07-23T09:03:21;21.40;99.90
20560;DHT22;10438;51.454;6.718;2022-07-23T09:05:49;21.50;99.90
20560;DHT22;10438;51.454;6.718;2022-07-23T09:08:16;21.50;99.90
20560;DHT22;10438;51.454;6.718;2022-07-23T09:10:45;21.60;99.90
20560;DHT22;10438;51.454;6.718;2022-07-23T09:13:49;21.70;99.90
20560;DHT22;10438;51.454;6.718;2022-07-23T09:16:22;21.90;99.90
20560;DHT22;10438;51.454;6.718;2022-07-23T09:21:27;22.00;99.90
20560;DHT22;10438;51.454;6.718;2022-07-23T09:24:07;22.10;99.90
20560;DHT22;10438;51.454;6.718;2022-07-23T09:26:46;22.10;99.90
20560;DHT22;10438;51.454;6.718;2022-07-23T09:29:22;22.30;99.90
20560;DHT22;10438;51.454;6.718;2022-07-23T09:31:53;22.30;99.90
20560;DHT22;10438;51.454;6.718;2022-07-23T09:34:21;22.50;99.90
20560;DHT22;10438;51.454;6.718;2022-07-23T09:36:48;22.60;99.90
20560;DHT22;10438;51.454;6.718;2022-07-23T09:39:16;22.70;99.90
20560;DHT22;10438;51.454;6.718;2022-07-23T09:41:47;22.70;99.90
20560;DHT22;10438;51.454;6.718;2022-07-23T09:44:18;22.70;99.90
20560;DHT22;10438;51.454;6.718;2022-07-23T09:46:49;22.80;99.90
20560;DHT22;10438;51.454;6.718;2022-07-23T09:49:18;22.90;99.90
20560;DHT22;10438;51.454;6.718;2022-07-23T09:51:46;23.00;99.90
20560;DHT22;10438;51.454;6.718;2022-07-23T09:56:48;23.30;99.90
20560;DHT22;10438;51.454;6.718;2022-07-23T09:59:16;23.40;99.90
20560;DHT22;10438;51.454;6.718;2022-07-23T10:01:44;23.40;93.10
20560;DHT22;10438;51.454;6.718;2022-07-23T10:04:11;23.20;99.90
20560;DHT22;10438;51.454;6.718;2022-07-23T10:06:39;23.30;99.90
20560;DHT22;10438;51.454;6.718;2022-07-23T10:09:05;23.50;99.00
20560;DHT22;10438;51.454;6.718;2022-07-23T10:11:31;23.50;98.90
20560;DHT22;10438;51.454;6.718;2022-07-23T10:13:58;23.50;96.90
20560;DHT22;10438;51.454;6.718;2022-07-23T10:16:25;23.80;99.90
20560;DHT22;10438;51.454;6.718;2022-07-23T10:18:51;23.90;97.00
20560;DHT22;10438;51.454;6.718;2022-07-23T10:24:01;24.10;75.90
20560;DHT22;10438;51.454;6.718;2022-07-23T10:26:38;24.30;90.90
20560;DHT22;10438;51.454;6.718;2022-07-23T10:34:39;24.40;84.70
20560;DHT22;10438;51.454;6.718;2022-07-23T10:40:21;24.60;90.10
20560;DHT22;10438;51.454;6.718;2022-07-23T10:42:50;24.70;64.00
20560;DHT22;10438;51.454;6.718;2022-07-23T10:45:32;24.80;74.80
20560;DHT22;10438;51.454;6.718;2022-07-23T10:48:16;24.90;72.00
20560;DHT22;10438;51.454;6.718;2022-07-23T10:50:43;25.20;61.90
20560;DHT22;10438;51.454;6.718;2022-07-23T10:53:14;25.40;63.70
20560;DHT22;10438;51.454;6.718;2022-07-23T10:55:44;25.40;60.00
20560;DHT22;10438;51.454;6.718;2022-07-23T10:58:10;25.50;57.20
20560;DHT22;10438;51.454;6.718;2022-07-23T11:00:37;25.40;47.40
20560;DHT22;10438;51.454;6.718;2022-07-23T11:03:05;25.50;70.40
20560;DHT22;10438;51.454;6.718;2022-07-23T11:05:44;25.80;45.90
20560;DHT22;10438;51.454;6.718;2022-07-23T11:08:18;25.70;47.10
20560;DHT22;10438;51.454;6.718;2022-07-23T11:13:30;25.70;34.00
20560;DHT22;10438;51.454;6.718;2022-07-23T11:36:56;26.60;42.40
20560;DHT22;10438;51.454;6.718;2022-07-23T11:39:25;26.60;27.70
20560;DHT22;10438;51.454;6.718;2022-07-23T11:41:52;26.70;30.70
20560;DHT22;10438;51.454;6.718;2022-07-23T11:44:31;26.80;29.20
20560;DHT22;10438;51.454;6.718;2022-07-23T11:47:04;26.50;27.80
20560;DHT22;10438;51.454;6.718;2022-07-23T11:49:30;26.70;28.30
20560;DHT22;10438;51.454;6.718;2022-07-23T11:54:30;26.70;26.20
20560;DHT22;10438;51.454;6.718;2022-07-23T11:56:57;26.80;30.00
20560;DHT22;10438;51.454;6.718;2022-07-23T11:59:24;26.70;25.20
20560;DHT22;10438;51.454;6.718;2022-07-23T12:02:04;26.70;25.80
20560;DHT22;10438;51.454;6.718;2022-07-23T12:04:45;27.00;27.10
20560;DHT22;10438;51.454;6.718;2022-07-23T12:07:37;27.10;25.90
20560;DHT22;10438;51.454;6.718;2022-07-23T12:12:43;26.30;23.20
20560;DHT22;10438;51.454;6.718;2022-07-23T12:15:11;26.80;26.10
20560;DHT22;10438;51.454;6.718;2022-07-23T12:17:38;27.00;21.90
20560;DHT22;10438;51.454;6.718;2022-07-23T12:20:06;27.20;19.20
20560;DHT22;10438;51.454;6.718;2022-07-23T12:22:41;27.30;19.60
20560;DHT22;10438;51.454;6.718;2022-07-23T12:25:12;27.30;16.50
20560;DHT22;10438;51.454;6.718;2022-07-23T12:27:39;27.50;19.50
20560;DHT22;10438;51.454;6.718;2022-07-23T12:30:24;27.60;14.90
20560;DHT22;10438;51.454;6.718;2022-07-23T12:32:53;27.60;17.80
20560;DHT22;10438;51.454;6.718;2022-07-23T12:35:20;27.90;17.60
20560;DHT22;10438;51.454;6.718;2022-07-23T12:37:47;28.00;17.50
20560;DHT22;10438;51.454;6.718;2022-07-23T12:40:31;27.90;15.90
20560;DHT22;10438;51.454;6.718;2022-07-23T12:43:06;27.70;18.00
20560;DHT22;10438;51.454;6.718;2022-07-23T12:46:08;27.90;18.30
20560;DHT22;10438;51.454;6.718;2022-07-23T12:48:49;27.90;13.90
20560;DHT22;10438;51.454;6.718;2022-07-23T12:53:45;27.70;14.30
20560;DHT22;10438;51.454;6.718;2022-07-23T12:56:14;27.20;16.00
20560;DHT22;10438;51.454;6.718;2022-07-23T13:01:23;27.90;17.80
20560;DHT22;10438;51.454;6.718;2022-07-23T13:04:05;27.80;13.60
20560;DHT22;10438;51.454;6.718;2022-07-23T13:06:35;28.20;13.80
20560;DHT22;10438;51.454;6.718;2022-07-23T13:09:02;28.50;14.30
20560;DHT22;10438;51.454;6.718;2022-07-23T13:11:28;28.70;12.30
20560;DHT22;10438;51.454;6.718;2022-07-23T13:13:53;28.70;13.20
20560;DHT22;10438;51.454;6.718;2022-07-23T13:16:19;29.00;13.70
20560;DHT22;10438;51.454;6.718;2022-07-23T13:18:45;29.30;13.20
20560;DHT22;10438;51.454;6.718;2022-07-23T13:21:10;29.40;11.40
20560;DHT22;10438;51.454;6.718;2022-07-23T13:23:36;29.40;12.80
20560;DHT22;10438;51.454;6.718;2022-07-23T13:26:01;29.90;11.30
20560;DHT22;10438;51.454;6.718;2022-07-23T13:28:27;30.10;10.90
20560;DHT22;10438;51.454;6.718;2022-07-23T13:30:53;30.20;10.40
20560;DHT22;10438;51.454;6.718;2022-07-23T13:33:20;30.30;8.00
20560;DHT22;10438;51.454;6.718;2022-07-23T13:35:46;30.10;8.10
20560;DHT22;10438;51.454;6.718;2022-07-23T13:38:12;29.90;7.60
20560;DHT22;10438;51.454;6.718;2022-07-23T13:40:40;28.70;6.30
20560;DHT22;10438;51.454;6.718;2022-07-23T13:43:09;29.50;10.10
20560;DHT22;10438;51.454;6.718;2022-07-23T13:45:34;29.80;10.70
20560;DHT22;10438;51.454;6.718;2022-07-23T13:48:00;30.10;9.30
20560;DHT22;10438;51.454;6.718;2022-07-23T13:50:26;30.00;11.30
20560;DHT22;10438;51.454;6.718;2022-07-23T13:52:52;30.50;9.30
20560;DHT22;10438;51.454;6.718;2022-07-23T13:55:17;30.30;7.50
20560;DHT22;10438;51.454;6.718;2022-07-23T13:57:43;30.30;5.90
20560;DHT22;10438;51.454;6.718;2022-07-23T14:00:10;30.30;6.80
20560;DHT22;10438;51.454;6.718;2022-07-23T14:02:38;30.90;7.30
20560;DHT22;10438;51.454;6.718;2022-07-23T14:05:06;29.50;4.40
20560;DHT22;10438;51.454;6.718;2022-07-23T14:07:34;29.50;4.90
20560;DHT22;10438;51.454;6.718;2022-07-23T14:10:00;29.90;5.00
20560;DHT22;10438;51.454;6.718;2022-07-23T14:12:26;30.10;6.40
20560;DHT22;10438;51.454;6.718;2022-07-23T14:14:51;30.50;6.80
20560;DHT22;10438;51.454;6.718;2022-07-23T14:17:17;29.40;6.20
20560;DHT22;10438;51.454;6.718;2022-07-23T14:19:43;29.70;8.10
20560;DHT22;10438;51.454;6.718;2022-07-23T14:22:08;30.20;8.10
20560;DHT22;10438;51.454;6.718;2022-07-23T14:24:34;30.80;7.50
20560;DHT22;10438;51.454;6.718;2022-07-23T14:27:00;30.60;5.50
20560;DHT22;10438;51.454;6.718;2022-07-23T14:29:27;30.00;5.00
20560;DHT22;10438;51.454;6.718;2022-07-23T14:31:52;29.90;6.70
20560;DHT22;10438;51.454;6.718;2022-07-23T14:34:18;30.20;6.20
20560;DHT22;10438;51.454;6.718;2022-07-23T14:36:43;30.70;7.50
20560;DHT22;10438;51.454;6.718;2022-07-23T14:39:09;30.40;7.10
20560;DHT22;10438;51.454;6.718;2022-07-23T14:41:35;30.60;7.50
20560;DHT22;10438;51.454;6.718;2022-07-23T14:44:01;31.40;5.40
20560;DHT22;10438;51.454;6.718;2022-07-23T14:46:27;31.10;4.90
20560;DHT22;10438;51.454;6.718;2022-07-23T14:48:52;31.10;4.70
20560;DHT22;10438;51.454;6.718;2022-07-23T14:51:18;31.10;3.40
20560;DHT22;10438;51.454;6.718;2022-07-23T14:53:43;30.90;3.20
20560;DHT22;10438;51.454;6.718;2022-07-23T14:56:09;31.00;3.90
20560;DHT22;10438;51.454;6.718;2022-07-23T14:58:35;31.70;4.60
20560;DHT22;10438;51.454;6.718;2022-07-23T15:01:00;31.60;3.80
20560;DHT22;10438;51.454;6.718;2022-07-23T15:03:26;31.20;2.50
20560;DHT22;10438;51.454;6.718;2022-07-23T15:05:51;31.20;5.70
20560;DHT22;10438;51.454;6.718;2022-07-23T15:08:17;31.10;4.30
20560;DHT22;10438;51.454;6.718;2022-07-23T15:10:43;31.10;5.10
20560;DHT22;10438;51.454;6.718;2022-07-23T15:13:08;31.20;3.70
20560;DHT22;10438;51.454;6.718;2022-07-23T15:15:34;31.50;4.50
20560;DHT22;10438;51.454;6.718;2022-07-23T15:18:00;30.90;1.40
20560;DHT22;10438;51.454;6.718;2022-07-23T15:20:25;30.50;4.60
20560;DHT22;10438;51.454;6.718;2022-07-23T15:22:51;30.10;3.50
20560;DHT22;10438;51.454;6.718;2022-07-23T15:25:16;29.70;4.60
20560;DHT22;10438;51.454;6.718;2022-07-23T15:27:42;30.00;4.30
20560;DHT22;10438;51.454;6.718;2022-07-23T15:30:08;30.20;5.70
20560;DHT22;10438;51.454;6.718;2022-07-23T15:32:34;29.70;6.50
20560;DHT22;10438;51.454;6.718;2022-07-23T15:34:59;29.20;6.30
20560;DHT22;10438;51.454;6.718;2022-07-23T15:37:25;28.90;8.30
20560;DHT22;10438;51.454;6.718;2022-07-23T15:39:51;28.80;8.20
20560;DHT22;10438;51.454;6.718;2022-07-23T15:42:17;28.70;9.20
20560;DHT22;10438;51.454;6.718;2022-07-23T15:44:44;28.30;8.80
20560;DHT22;10438;51.454;6.718;2022-07-23T15:47:13;27.70;8.80
20560;DHT22;10438;51.454;6.718;2022-07-23T15:49:39;27.50;11.20
20560;DHT22;10438;51.454;6.718;2022-07-23T15:52:04;27.50;11.10
20560;DHT22;10438;51.454;6.718;2022-07-23T15:54:30;27.80;11.60
20560;DHT22;10438;51.454;6.718;2022-07-23T15:56:56;28.20;11.40
20560;DHT22;10438;51.454;6.718;2022-07-23T15:59:22;28.00;10.40
20560;DHT22;10438;51.454;6.718;2022-07-23T16:01:47;28.70;12.60
20560;DHT22;10438;51.454;6.718;2022-07-23T16:04:13;29.10;9.80
20560;DHT22;10438;51.454;6.718;2022-07-23T16:06:38;29.50;9.10
20560;DHT22;10438;51.454;6.718;2022-07-23T16:09:07;29.80;7.50
20560;DHT22;10438;51.454;6.718;2022-07-23T16:11:33;29.30;5.90
20560;DHT22;10438;51.454;6.718;2022-07-23T16:13:59;28.80;9.40
20560;DHT22;10438;51.454;6.718;2022-07-23T16:16:25;28.40;9.60
20560;DHT22;10438;51.454;6.718;2022-07-23T16:18:52;27.80;9.10
20560;DHT22;10438;51.454;6.718;2022-07-23T16:21:18;27.60;12.30